Archival Weather

John F Kennedy Intl

New York, New York (KJFK)

Report from: Thursday, September 21, 2023 6:51 PM EDT
Current time: Sunday, February 25, 2024 5:37 PM EST

Current weather – Weather history – Daily summaries
Weather forecast

Temperature20.0°C (68.0°F)
Dew point10.6°C (51.1°F)
Winds 7 kts (3.6 m/s, 8.1 mph) Northeast (50°)
Visibility10 mi. (16.1 km)
Clouds Few clouds 5,000 ft. (1,524 m)
Ceiling: Broken clouds 25,000 ft. (7,620 m)
Altimeter30.27 in.Hg (1025 mB)
Relative humidity55 %
Density altitude375 ft. (114 m)
Sea-level pressure102.5 kPa (1025 mB, 30.27 in.Hg)
Remarks Automated weather observing station with precipitation discriminator
Flight conditions Visual Meteorological Conditions
Raw dataKJFK 212251Z 05007KT 10SM FEW050 BKN250 20/11 A3027 RMK AO2 SLP249 T02000106
An error has occurred. This application may no longer respond until reloaded. Reload 🗙